To NAV CANADA Home Page Login to a new session Search on AWWS site Feedback and Comments Disclaimer Vers la page française équivalente Tips FAQ What's new on the site To the Forecasts and Observations / NOTAM section To "File a Flight Plan" website Publications and other links Update of the User's profile FIC Telephone Numbers My Weather Data Folder Route Weather Data Regional Weather Data Local Weather Data To the Forecasts and Observations / NOTAM section
Request Generated 05/29/2015 at 15:58:46 UTC . Weather information available at that time is displayed.

METAR/TAF

PAULATUK/PAULATUK (NORA ALIQATCHIALUK RUBEN)/NT    

METAR CYPC 291500Z 28012KT 15SM FEW300 07/01 A3008 RMK CI1 SLP188=
METAR CYPC 291400Z 23009KT 15SM FEW300 10/02 A3008 RMK CI1 SLP188=
METAR CYPC 291300Z 22012G17KT 15SM FEW300 10/01 A3009 RMK CI1
15.4/-1.7/0 SLP189=

TAF CYPC 291441Z 2915/2923 23012KT P6SM SKC
RMK NXT FCST BY 291900Z=
Your time UTC time
Weather data provided by Environment Canada and NAV CANADA